sensor_id;sensor_type;location;lat;lon;timestamp;pressure;altitude;pressure_sealevel;temperature;humidity
78170;BME280;67412;49.892;14.490;2023-03-01T00:00:11;98285.63;;;-3.85;77.69
78170;BME280;67412;49.892;14.490;2023-03-01T00:02:36;98293.78;;;-3.90;77.28
78170;BME280;67412;49.892;14.490;2023-03-01T00:05:03;98299.66;;;-3.89;77.20
78170;BME280;67412;49.892;14.490;2023-03-01T00:07:28;98292.28;;;-3.86;78.12
78170;BME280;67412;49.892;14.490;2023-03-01T00:09:54;98287.09;;;-3.74;77.28
78170;BME280;67412;49.892;14.490;2023-03-01T00:12:20;98297.75;;;-3.78;77.69
78170;BME280;67412;49.892;14.490;2023-03-01T00:14:45;98289.44;;;-3.77;76.33
78170;BME280;67412;49.892;14.490;2023-03-01T00:17:10;98288.94;;;-3.86;77.16
78170;BME280;67412;49.892;14.490;2023-03-01T00:19:36;98288.59;;;-3.93;77.23
78170;BME280;67412;49.892;14.490;2023-03-01T00:22:02;98295.84;;;-3.97;77.85
78170;BME280;67412;49.892;14.490;2023-03-01T00:24:27;98293.09;;;-4.02;77.34
78170;BME280;67412;49.892;14.490;2023-03-01T00:26:54;98288.94;;;-4.01;77.72
78170;BME280;67412;49.892;14.490;2023-03-01T00:29:21;98285.63;;;-4.00;78.22
78170;BME280;67412;49.892;14.490;2023-03-01T00:31:47;98283.41;;;-3.96;77.69
78170;BME280;67412;49.892;14.490;2023-03-01T00:34:12;98278.97;;;-4.00;77.44
78170;BME280;67412;49.892;14.490;2023-03-01T00:36:38;98284.59;;;-4.04;77.45
78170;BME280;67412;49.892;14.490;2023-03-01T00:39:07;98282.09;;;-4.04;77.67
78170;BME280;67412;49.892;14.490;2023-03-01T00:41:32;98287.03;;;-4.05;78.02
78170;BME280;67412;49.892;14.490;2023-03-01T00:43:59;98286.50;;;-4.00;77.64
78170;BME280;67412;49.892;14.490;2023-03-01T00:46:26;98286.44;;;-4.01;77.97
78170;BME280;67412;49.892;14.490;2023-03-01T00:48:52;98277.25;;;-4.01;78.44
78170;BME280;67412;49.892;14.490;2023-03-01T00:51:24;98279.69;;;-4.02;77.33
78170;BME280;67412;49.892;14.490;2023-03-01T00:53:52;98268.94;;;-4.00;77.13
78170;BME280;67412;49.892;14.490;2023-03-01T00:56:18;98269.72;;;-4.01;77.23
78170;BME280;67412;49.892;14.490;2023-03-01T00:58:43;98261.41;;;-4.00;77.57
78170;BME280;67412;49.892;14.490;2023-03-01T01:01:21;98261.75;;;-4.08;78.01
78170;BME280;67412;49.892;14.490;2023-03-01T01:03:50;98255.91;;;-4.09;78.20
78170;BME280;67412;49.892;14.490;2023-03-01T01:06:21;98261.75;;;-4.08;77.68
78170;BME280;67412;49.892;14.490;2023-03-01T01:08:48;98254.22;;;-4.08;77.84
78170;BME280;67412;49.892;14.490;2023-03-01T01:11:13;98264.69;;;-4.15;77.92
78170;BME280;67412;49.892;14.490;2023-03-01T01:13:39;98259.22;;;-4.23;77.65
78170;BME280;67412;49.892;14.490;2023-03-01T01:16:05;98259.81;;;-4.27;77.83
78170;BME280;67412;49.892;14.490;2023-03-01T01:18:31;98251.47;;;-4.27;78.60
78170;BME280;67412;49.892;14.490;2023-03-01T01:20:56;98255.19;;;-4.21;78.63
78170;BME280;67412;49.892;14.490;2023-03-01T01:23:22;98249.78;;;-4.27;77.58
78170;BME280;67412;49.892;14.490;2023-03-01T01:25:47;98247.22;;;-4.28;78.80
78170;BME280;67412;49.892;14.490;2023-03-01T01:28:12;98247.66;;;-4.21;79.01
78170;BME280;67412;49.892;14.490;2023-03-01T01:30:38;98245.22;;;-4.19;78.39
78170;BME280;67412;49.892;14.490;2023-03-01T01:33:03;98231.41;;;-4.13;78.65
78170;BME280;67412;49.892;14.490;2023-03-01T01:35:28;98231.91;;;-4.18;78.36
78170;BME280;67412;49.892;14.490;2023-03-01T01:37:54;98231.81;;;-4.20;78.22
78170;BME280;67412;49.892;14.490;2023-03-01T01:40:19;98231.63;;;-4.23;78.52
78170;BME280;67412;49.892;14.490;2023-03-01T01:42:45;98225.16;;;-4.19;77.78
78170;BME280;67412;49.892;14.490;2023-03-01T01:45:28;98223.88;;;-4.13;77.96
78170;BME280;67412;49.892;14.490;2023-03-01T01:47:57;98218.06;;;-4.26;77.50
78170;BME280;67412;49.892;14.490;2023-03-01T01:50:24;98214.78;;;-4.40;78.76
78170;BME280;67412;49.892;14.490;2023-03-01T01:52:51;98211.22;;;-4.44;78.22
78170;BME280;67412;49.892;14.490;2023-03-01T01:55:22;98210.50;;;-4.56;77.50
78170;BME280;67412;49.892;14.490;2023-03-01T01:57:56;98204.88;;;-4.66;79.38
78170;BME280;67412;49.892;14.490;2023-03-01T02:00:26;98205.22;;;-4.60;79.73
78170;BME280;67412;49.892;14.490;2023-03-01T02:03:10;98211.34;;;-4.70;78.38
78170;BME280;67412;49.892;14.490;2023-03-01T02:05:46;98213.41;;;-4.77;79.42
78170;BME280;67412;49.892;14.490;2023-03-01T02:08:16;98217.38;;;-4.81;79.83
78170;BME280;67412;49.892;14.490;2023-03-01T02:10:43;98220.75;;;-4.80;80.31
78170;BME280;67412;49.892;14.490;2023-03-01T02:13:10;98220.16;;;-4.76;80.17
78170;BME280;67412;49.892;14.490;2023-03-01T02:15:38;98213.94;;;-4.68;80.03
78170;BME280;67412;49.892;14.490;2023-03-01T02:18:06;98208.75;;;-4.71;80.50
78170;BME280;67412;49.892;14.490;2023-03-01T02:23:28;98213.78;;;-4.57;79.50
78170;BME280;67412;49.892;14.490;2023-03-01T02:26:11;98211.38;;;-4.55;79.85
78170;BME280;67412;49.892;14.490;2023-03-01T02:28:42;98209.63;;;-4.56;79.07
78170;BME280;67412;49.892;14.490;2023-03-01T02:31:09;98213.19;;;-4.53;78.29
78170;BME280;67412;49.892;14.490;2023-03-01T02:33:54;98210.16;;;-4.62;78.07
78170;BME280;67412;49.892;14.490;2023-03-01T02:36:24;98213.09;;;-4.69;78.01
78170;BME280;67412;49.892;14.490;2023-03-01T02:38:53;98213.75;;;-4.71;78.74
78170;BME280;67412;49.892;14.490;2023-03-01T02:41:21;98216.53;;;-4.67;79.22
78170;BME280;67412;49.892;14.490;2023-03-01T02:43:48;98213.94;;;-4.68;78.29
78170;BME280;67412;49.892;14.490;2023-03-01T02:46:19;98210.22;;;-4.60;78.56
78170;BME280;67412;49.892;14.490;2023-03-01T02:48:48;98211.72;;;-4.49;79.01
78170;BME280;67412;49.892;14.490;2023-03-01T02:56:45;98194.59;;;-4.56;78.27
78170;BME280;67412;49.892;14.490;2023-03-01T02:59:17;98193.06;;;-4.54;78.85
78170;BME280;67412;49.892;14.490;2023-03-01T03:01:43;98199.28;;;-4.62;78.47
78170;BME280;67412;49.892;14.490;2023-03-01T03:04:12;98188.34;;;-4.77;76.79
78170;BME280;67412;49.892;14.490;2023-03-01T03:06:45;98189.09;;;-4.93;78.08
78170;BME280;67412;49.892;14.490;2023-03-01T03:09:12;98193.81;;;-4.98;79.63
78170;BME280;67412;49.892;14.490;2023-03-01T03:11:38;98198.22;;;-4.94;79.25
78170;BME280;67412;49.892;14.490;2023-03-01T03:14:05;98196.88;;;-4.89;78.73
78170;BME280;67412;49.892;14.490;2023-03-01T03:16:31;98193.84;;;-4.83;79.29
78170;BME280;67412;49.892;14.490;2023-03-01T03:18:56;98190.84;;;-4.77;78.70
78170;BME280;67412;49.892;14.490;2023-03-01T03:21:31;98179.84;;;-4.79;79.04
78170;BME280;67412;49.892;14.490;2023-03-01T03:23:56;98181.88;;;-4.74;78.02
78170;BME280;67412;49.892;14.490;2023-03-01T03:26:22;98181.44;;;-4.81;77.37
78170;BME280;67412;49.892;14.490;2023-03-01T03:28:48;98186.31;;;-4.98;79.55
78170;BME280;67412;49.892;14.490;2023-03-01T03:31:13;98172.75;;;-4.87;79.52
78170;BME280;67412;49.892;14.490;2023-03-01T03:33:38;98181.56;;;-4.93;80.10
78170;BME280;67412;49.892;14.490;2023-03-01T03:36:04;98182.75;;;-5.01;79.07
78170;BME280;67412;49.892;14.490;2023-03-01T03:38:30;98168.59;;;-5.01;79.37
78170;BME280;67412;49.892;14.490;2023-03-01T03:41:04;98178.25;;;-5.07;78.77
78170;BME280;67412;49.892;14.490;2023-03-01T03:43:32;98176.47;;;-5.22;79.18
78170;BME280;67412;49.892;14.490;2023-03-01T03:45:59;98180.03;;;-5.32;79.59
78170;BME280;67412;49.892;14.490;2023-03-01T03:48:25;98186.97;;;-5.28;80.38
78170;BME280;67412;49.892;14.490;2023-03-01T03:50:55;98179.66;;;-5.25;79.67
78170;BME280;67412;49.892;14.490;2023-03-01T03:53:23;98172.91;;;-5.26;78.42
78170;BME280;67412;49.892;14.490;2023-03-01T03:55:48;98177.75;;;-5.29;79.00
78170;BME280;67412;49.892;14.490;2023-03-01T03:58:15;98180.91;;;-5.18;79.44
78170;BME280;67412;49.892;14.490;2023-03-01T04:00:43;98181.97;;;-5.28;79.56
78170;BME280;67412;49.892;14.490;2023-03-01T04:03:10;98176.41;;;-5.37;79.65
78170;BME280;67412;49.892;14.490;2023-03-01T04:05:37;98181.91;;;-5.43;79.37
78170;BME280;67412;49.892;14.490;2023-03-01T04:08:04;98186.63;;;-5.47;80.78
78170;BME280;67412;49.892;14.490;2023-03-01T04:10:39;98178.63;;;-5.42;80.38
78170;BME280;67412;49.892;14.490;2023-03-01T04:13:05;98173.88;;;-5.24;80.72
78170;BME280;67412;49.892;14.490;2023-03-01T04:15:32;98174.31;;;-5.16;80.68
78170;BME280;67412;49.892;14.490;2023-03-01T04:17:59;98182.00;;;-5.13;81.23
78170;BME280;67412;49.892;14.490;2023-03-01T04:20:27;98167.09;;;-5.12;80.66
78170;BME280;67412;49.892;14.490;2023-03-01T04:23:05;98173.44;;;-5.17;80.80
78170;BME280;67412;49.892;14.490;2023-03-01T04:25:48;98181.47;;;-5.22;80.49
78170;BME280;67412;49.892;14.490;2023-03-01T04:28:19;98177.94;;;-5.26;80.37
78170;BME280;67412;49.892;14.490;2023-03-01T04:30:45;98176.00;;;-5.30;79.33
78170;BME280;67412;49.892;14.490;2023-03-01T04:33:11;98173.44;;;-5.45;78.71
78170;BME280;67412;49.892;14.490;2023-03-01T04:35:37;98179.78;;;-5.50;80.00
78170;BME280;67412;49.892;14.490;2023-03-01T04:38:04;98175.38;;;-5.54;79.16
78170;BME280;67412;49.892;14.490;2023-03-01T04:40:29;98173.16;;;-5.62;79.52
78170;BME280;67412;49.892;14.490;2023-03-01T04:42:55;98172.13;;;-5.66;79.32
78170;BME280;67412;49.892;14.490;2023-03-01T04:45:20;98170.47;;;-5.65;80.32
78170;BME280;67412;49.892;14.490;2023-03-01T04:47:46;98170.69;;;-5.75;80.71
78170;BME280;67412;49.892;14.490;2023-03-01T04:50:16;98170.97;;;-5.71;81.08
78170;BME280;67412;49.892;14.490;2023-03-01T04:52:43;98175.50;;;-5.78;78.99
78170;BME280;67412;49.892;14.490;2023-03-01T04:55:09;98182.28;;;-5.91;79.79
78170;BME280;67412;49.892;14.490;2023-03-01T04:57:35;98179.78;;;-6.04;81.87
78170;BME280;67412;49.892;14.490;2023-03-01T05:00:00;98182.75;;;-6.09;82.10
78170;BME280;67412;49.892;14.490;2023-03-01T05:02:26;98189.69;;;-6.05;82.45
78170;BME280;67412;49.892;14.490;2023-03-01T05:04:51;98188.03;;;-5.92;82.64
78170;BME280;67412;49.892;14.490;2023-03-01T05:07:17;98184.28;;;-5.85;82.46
78170;BME280;67412;49.892;14.490;2023-03-01T05:09:46;98183.59;;;-5.82;82.04
78170;BME280;67412;49.892;14.490;2023-03-01T05:12:12;98179.19;;;-5.87;82.32
78170;BME280;67412;49.892;14.490;2023-03-01T05:14:38;98185.22;;;-5.83;83.13
78170;BME280;67412;49.892;14.490;2023-03-01T05:17:04;98177.16;;;-5.79;82.53
78170;BME280;67412;49.892;14.490;2023-03-01T05:19:30;98183.84;;;-5.65;82.28
78170;BME280;67412;49.892;14.490;2023-03-01T05:21:57;98180.03;;;-5.60;81.96
78170;BME280;67412;49.892;14.490;2023-03-01T05:24:33;98183.47;;;-5.58;81.82
78170;BME280;67412;49.892;14.490;2023-03-01T05:26:59;98186.84;;;-5.57;81.62
78170;BME280;67412;49.892;14.490;2023-03-01T05:29:26;98191.47;;;-5.63;81.34
78170;BME280;67412;49.892;14.490;2023-03-01T05:31:56;98179.16;;;-5.73;80.14
78170;BME280;67412;49.892;14.490;2023-03-01T05:34:27;98184.16;;;-5.73;81.46
78170;BME280;67412;49.892;14.490;2023-03-01T05:36:53;98172.25;;;-5.77;81.04
78170;BME280;67412;49.892;14.490;2023-03-01T05:39:24;98182.91;;;-5.80;80.01
78170;BME280;67412;49.892;14.490;2023-03-01T05:41:59;98180.00;;;-5.73;82.37
78170;BME280;67412;49.892;14.490;2023-03-01T05:44:25;98178.59;;;-5.82;80.23
78170;BME280;67412;49.892;14.490;2023-03-01T05:46:51;98179.75;;;-5.77;80.65
78170;BME280;67412;49.892;14.490;2023-03-01T05:49:17;98174.53;;;-5.80;81.27
78170;BME280;67412;49.892;14.490;2023-03-01T05:51:47;98175.00;;;-5.73;81.61
78170;BME280;67412;49.892;14.490;2023-03-01T05:54:12;98172.22;;;-5.64;81.97
78170;BME280;67412;49.892;14.490;2023-03-01T05:56:38;98168.75;;;-5.53;81.27
78170;BME280;67412;49.892;14.490;2023-03-01T05:59:04;98164.78;;;-5.50;81.92
78170;BME280;67412;49.892;14.490;2023-03-01T06:01:33;98161.81;;;-5.44;81.60
78170;BME280;67412;49.892;14.490;2023-03-01T06:03:59;98153.50;;;-5.43;81.04
78170;BME280;67412;49.892;14.490;2023-03-01T06:06:25;98156.47;;;-5.36;80.54
78170;BME280;67412;49.892;14.490;2023-03-01T06:08:51;98152.16;;;-5.38;81.60
78170;BME280;67412;49.892;14.490;2023-03-01T06:11:16;98159.63;;;-5.25;80.85
78170;BME280;67412;49.892;14.490;2023-03-01T06:13:43;98152.47;;;-5.19;80.87
78170;BME280;67412;49.892;14.490;2023-03-01T06:16:09;98152.59;;;-5.17;80.96
78170;BME280;67412;49.892;14.490;2023-03-01T06:18:35;98159.56;;;-5.12;81.38
78170;BME280;67412;49.892;14.490;2023-03-01T06:21:00;98169.28;;;-5.03;80.70
78170;BME280;67412;49.892;14.490;2023-03-01T06:23:26;98151.16;;;-4.99;80.66
78170;BME280;67412;49.892;14.490;2023-03-01T06:25:51;98151.22;;;-4.98;80.49
78170;BME280;67412;49.892;14.490;2023-03-01T06:28:17;98142.63;;;-4.88;81.34
78170;BME280;67412;49.892;14.490;2023-03-01T06:30:43;98143.25;;;-4.77;81.08
78170;BME280;67412;49.892;14.490;2023-03-01T06:33:08;98147.22;;;-4.66;81.25
78170;BME280;67412;49.892;14.490;2023-03-01T06:35:34;98147.84;;;-4.56;80.41
78170;BME280;67412;49.892;14.490;2023-03-01T06:38:01;98146.53;;;-4.34;80.20
78170;BME280;67412;49.892;14.490;2023-03-01T06:40:27;98148.28;;;-4.19;79.15
78170;BME280;67412;49.892;14.490;2023-03-01T06:42:53;98138.75;;;-4.10;78.73
78170;BME280;67412;49.892;14.490;2023-03-01T06:45:20;98143.66;;;-3.97;77.62
78170;BME280;67412;49.892;14.490;2023-03-01T06:47:46;98156.97;;;-3.83;76.92
78170;BME280;67412;49.892;14.490;2023-03-01T06:50:12;98162.22;;;-3.78;77.21
78170;BME280;67412;49.892;14.490;2023-03-01T06:52:38;98151.97;;;-3.67;77.00
78170;BME280;67412;49.892;14.490;2023-03-01T06:55:04;98161.50;;;-3.61;76.88
78170;BME280;67412;49.892;14.490;2023-03-01T06:57:30;98159.47;;;-3.52;76.05
78170;BME280;67412;49.892;14.490;2023-03-01T06:59:56;98153.31;;;-3.43;76.06
78170;BME280;67412;49.892;14.490;2023-03-01T07:02:21;98147.59;;;-3.24;76.35
78170;BME280;67412;49.892;14.490;2023-03-01T07:04:49;98139.19;;;-3.24;75.43
78170;BME280;67412;49.892;14.490;2023-03-01T07:07:15;98147.44;;;-3.11;75.19
78170;BME280;67412;49.892;14.490;2023-03-01T07:09:42;98147.84;;;-2.87;74.08
78170;BME280;67412;49.892;14.490;2023-03-01T07:12:07;98147.44;;;-2.78;73.66
78170;BME280;67412;49.892;14.490;2023-03-01T07:14:33;98149.63;;;-2.68;73.01
78170;BME280;67412;49.892;14.490;2023-03-01T07:16:58;98150.09;;;-2.59;72.64
78170;BME280;67412;49.892;14.490;2023-03-01T07:19:24;98156.16;;;-2.56;72.50
78170;BME280;67412;49.892;14.490;2023-03-01T07:21:50;98153.13;;;-2.49;72.48
78170;BME280;67412;49.892;14.490;2023-03-01T07:24:15;98154.22;;;-2.44;72.74
78170;BME280;67412;49.892;14.490;2023-03-01T07:26:40;98154.69;;;-2.34;72.34
78170;BME280;67412;49.892;14.490;2023-03-01T07:29:07;98152.19;;;-2.17;71.96
78170;BME280;67412;49.892;14.490;2023-03-01T07:31:34;98151.22;;;-2.03;72.30
78170;BME280;67412;49.892;14.490;2023-03-01T07:34:00;98149.97;;;-1.93;71.41
78170;BME280;67412;49.892;14.490;2023-03-01T07:36:25;98154.13;;;-1.76;70.85
78170;BME280;67412;49.892;14.490;2023-03-01T07:38:51;98156.50;;;-1.61;70.59
78170;BME280;67412;49.892;14.490;2023-03-01T07:41:17;98151.25;;;-1.48;71.06
78170;BME280;67412;49.892;14.490;2023-03-01T07:43:42;98155.13;;;-1.37;69.78
78170;BME280;67412;49.892;14.490;2023-03-01T07:46:08;98149.56;;;-1.30;69.48
78170;BME280;67412;49.892;14.490;2023-03-01T07:48:34;98147.81;;;-1.31;70.47
78170;BME280;67412;49.892;14.490;2023-03-01T07:51:00;98146.06;;;-1.14;70.51
78170;BME280;67412;49.892;14.490;2023-03-01T07:53:26;98141.63;;;-1.01;69.48
78170;BME280;67412;49.892;14.490;2023-03-01T07:56:06;98146.81;;;-0.98;69.62
78170;BME280;67412;49.892;14.490;2023-03-01T07:58:34;98149.81;;;-0.87;69.04
78170;BME280;67412;49.892;14.490;2023-03-01T08:01:08;98148.28;;;-0.83;67.93
78170;BME280;67412;49.892;14.490;2023-03-01T08:03:34;98148.59;;;-0.76;68.98
78170;BME280;67412;49.892;14.490;2023-03-01T08:06:01;98145.25;;;-0.75;68.00
78170;BME280;67412;49.892;14.490;2023-03-01T08:08:28;98148.66;;;-0.93;68.94
78170;BME280;67412;49.892;14.490;2023-03-01T08:10:56;98140.84;;;-0.80;69.26
78170;BME280;67412;49.892;14.490;2023-03-01T08:13:22;98135.50;;;-0.67;69.66
78170;BME280;67412;49.892;14.490;2023-03-01T08:15:50;98129.94;;;-0.60;67.34
78170;BME280;67412;49.892;14.490;2023-03-01T08:18:17;98135.09;;;-0.57;66.65
78170;BME280;67412;49.892;14.490;2023-03-01T08:20:42;98140.94;;;-0.58;66.90
78170;BME280;67412;49.892;14.490;2023-03-01T08:23:07;98139.81;;;-0.45;66.91
78170;BME280;67412;49.892;14.490;2023-03-01T08:25:33;98137.44;;;-0.41;67.22
78170;BME280;67412;49.892;14.490;2023-03-01T08:27:58;98143.56;;;-0.36;66.16
78170;BME280;67412;49.892;14.490;2023-03-01T08:30:24;98145.28;;;-0.35;66.84
78170;BME280;67412;49.892;14.490;2023-03-01T08:32:49;98145.97;;;-0.39;66.68
78170;BME280;67412;49.892;14.490;2023-03-01T08:35:16;98149.47;;;-0.15;66.97
78170;BME280;67412;49.892;14.490;2023-03-01T08:37:41;98150.72;;;-0.05;66.63
78170;BME280;67412;49.892;14.490;2023-03-01T08:40:07;98149.84;;;-0.06;67.07
78170;BME280;67412;49.892;14.490;2023-03-01T08:42:35;98156.88;;;0.02;66.94
78170;BME280;67412;49.892;14.490;2023-03-01T08:45:01;98153.06;;;0.11;65.56
78170;BME280;67412;49.892;14.490;2023-03-01T08:47:26;98150.59;;;0.13;66.16
78170;BME280;67412;49.892;14.490;2023-03-01T08:49:51;98145.78;;;0.19;65.60
78170;BME280;67412;49.892;14.490;2023-03-01T08:52:18;98140.28;;;0.29;65.58
78170;BME280;67412;49.892;14.490;2023-03-01T08:54:43;98145.75;;;0.39;65.70
78170;BME280;67412;49.892;14.490;2023-03-01T08:57:09;98140.63;;;0.38;64.74
78170;BME280;67412;49.892;14.490;2023-03-01T08:59:34;98136.41;;;0.59;64.14
78170;BME280;67412;49.892;14.490;2023-03-01T09:02:08;98131.91;;;0.52;64.08
78170;BME280;67412;49.892;14.490;2023-03-01T09:04:35;98125.16;;;0.53;63.91
78170;BME280;67412;49.892;14.490;2023-03-01T09:07:01;98122.53;;;0.72;63.54
78170;BME280;67412;49.892;14.490;2023-03-01T09:09:26;98118.03;;;0.87;62.73
78170;BME280;67412;49.892;14.490;2023-03-01T09:11:53;98117.63;;;0.98;61.68
78170;BME280;67412;49.892;14.490;2023-03-01T09:14:18;98112.78;;;1.05;61.05
78170;BME280;67412;49.892;14.490;2023-03-01T09:16:44;98111.16;;;1.07;62.04
78170;BME280;67412;49.892;14.490;2023-03-01T09:19:10;98104.09;;;1.22;60.09
78170;BME280;67412;49.892;14.490;2023-03-01T09:21:37;98095.31;;;1.36;60.29
78170;BME280;67412;49.892;14.490;2023-03-01T09:24:02;98104.72;;;1.40;60.07
78170;BME280;67412;49.892;14.490;2023-03-01T09:26:27;98104.19;;;1.49;60.26
78170;BME280;67412;49.892;14.490;2023-03-01T09:28:54;98096.66;;;1.75;60.74
78170;BME280;67412;49.892;14.490;2023-03-01T09:31:22;98090.66;;;1.99;59.78
78170;BME280;67412;49.892;14.490;2023-03-01T09:33:51;98089.78;;;1.98;56.59
78170;BME280;67412;49.892;14.490;2023-03-01T09:36:22;98086.13;;;1.90;56.34
78170;BME280;67412;49.892;14.490;2023-03-01T09:38:48;98081.78;;;1.86;56.32
78170;BME280;67412;49.892;14.490;2023-03-01T09:43:52;98085.59;;;1.99;58.84
78170;BME280;67412;49.892;14.490;2023-03-01T09:46:22;98087.34;;;2.28;57.42
78170;BME280;67412;49.892;14.490;2023-03-01T09:48:56;98087.06;;;2.47;58.84
78170;BME280;67412;49.892;14.490;2023-03-01T09:51:34;98089.63;;;2.49;58.25
78170;BME280;67412;49.892;14.490;2023-03-01T09:54:04;98098.81;;;2.45;58.41
78170;BME280;67412;49.892;14.490;2023-03-01T09:56:34;98086.22;;;2.76;57.10
78170;BME280;67412;49.892;14.490;2023-03-01T10:01:40;98075.78;;;2.96;55.35
78170;BME280;67412;49.892;14.490;2023-03-01T10:07:36;98075.34;;;2.80;54.18
78170;BME280;67412;49.892;14.490;2023-03-01T10:10:10;98070.88;;;3.02;56.23
78170;BME280;67412;49.892;14.490;2023-03-01T10:12:42;98073.97;;;3.23;56.36
78170;BME280;67412;49.892;14.490;2023-03-01T10:15:41;98066.84;;;3.41;53.56
78170;BME280;67412;49.892;14.490;2023-03-01T10:18:09;98064.38;;;3.44;54.03
78170;BME280;67412;49.892;14.490;2023-03-01T10:20:44;98058.47;;;3.45;53.68
78170;BME280;67412;49.892;14.490;2023-03-01T10:23:11;98063.31;;;3.05;52.27
78170;BME280;67412;49.892;14.490;2023-03-01T10:25:43;98062.59;;;3.09;52.55
78170;BME280;67412;49.892;14.490;2023-03-01T10:28:22;98059.88;;;3.34;53.33
78170;BME280;67412;49.892;14.490;2023-03-01T10:30:50;98057.44;;;3.37;54.10
78170;BME280;67412;49.892;14.490;2023-03-01T10:35:44;98042.28;;;3.74;55.05
78170;BME280;67412;49.892;14.490;2023-03-01T10:38:11;98045.06;;;3.85;53.91
78170;BME280;67412;49.892;14.490;2023-03-01T10:43:16;98034.28;;;3.94;53.09
78170;BME280;67412;49.892;14.490;2023-03-01T10:45:42;98029.50;;;4.09;54.27
78170;BME280;67412;49.892;14.490;2023-03-01T10:48:37;98034.75;;;4.15;54.34
78170;BME280;67412;49.892;14.490;2023-03-01T10:53:45;98019.63;;;4.21;51.01
78170;BME280;67412;49.892;14.490;2023-03-01T10:56:14;98020.13;;;4.06;53.63
78170;BME280;67412;49.892;14.490;2023-03-01T10:58:57;98011.28;;;4.28;54.76
78170;BME280;67412;49.892;14.490;2023-03-01T11:04:08;98009.66;;;4.30;50.36
78170;BME280;67412;49.892;14.490;2023-03-01T11:06:36;98006.97;;;4.24;51.10
78170;BME280;67412;49.892;14.490;2023-03-01T11:09:19;98008.75;;;4.28;51.99
78170;BME280;67412;49.892;14.490;2023-03-01T11:11:46;98006.50;;;4.42;52.66
78170;BME280;67412;49.892;14.490;2023-03-01T11:16:48;97998.34;;;4.16;51.40
78170;BME280;67412;49.892;14.490;2023-03-01T11:19:18;97992.97;;;4.04;52.01
78170;BME280;67412;49.892;14.490;2023-03-01T11:24:44;97981.47;;;4.21;50.71
78170;BME280;67412;49.892;14.490;2023-03-01T11:27:21;97972.88;;;4.14;50.84
78170;BME280;67412;49.892;14.490;2023-03-01T11:32:24;97977.28;;;4.23;51.66
78170;BME280;67412;49.892;14.490;2023-03-01T11:34:57;97977.22;;;4.20;50.55
78170;BME280;67412;49.892;14.490;2023-03-01T11:37:56;97972.00;;;4.12;50.33
78170;BME280;67412;49.892;14.490;2023-03-01T11:40:25;97965.78;;;4.40;50.96
78170;BME280;67412;49.892;14.490;2023-03-01T11:50:54;97959.75;;;4.78;49.50
78170;BME280;67412;49.892;14.490;2023-03-01T11:53:33;97949.03;;;4.96;50.53
78170;BME280;67412;49.892;14.490;2023-03-01T11:56:10;97953.97;;;4.87;49.56
78170;BME280;67412;49.892;14.490;2023-03-01T12:07:01;97951.84;;;5.11;49.47
78170;BME280;67412;49.892;14.490;2023-03-01T12:09:44;97941.66;;;5.10;50.33
78170;BME280;67412;49.892;14.490;2023-03-01T12:30:25;97909.13;;;4.94;50.08
78170;BME280;67412;49.892;14.490;2023-03-01T12:33:02;97899.56;;;4.82;50.41
78170;BME280;67412;49.892;14.490;2023-03-01T12:35:38;97892.94;;;4.92;51.48
78170;BME280;67412;49.892;14.490;2023-03-01T12:49:35;97889.75;;;5.03;50.34
78170;BME280;67412;49.892;14.490;2023-03-01T12:52:17;97889.00;;;5.09;52.08
78170;BME280;67412;49.892;14.490;2023-03-01T12:54:46;97892.28;;;5.03;51.77
78170;BME280;67412;49.892;14.490;2023-03-01T12:57:20;97896.56;;;5.04;52.05
78170;BME280;67412;49.892;14.490;2023-03-01T13:00:10;97888.19;;;5.10;50.80
78170;BME280;67412;49.892;14.490;2023-03-01T13:02:55;97886.59;;;5.18;52.55
78170;BME280;67412;49.892;14.490;2023-03-01T13:10:56;97873.31;;;5.35;51.07
78170;BME280;67412;49.892;14.490;2023-03-01T13:13:26;97875.22;;;5.50;50.86
78170;BME280;67412;49.892;14.490;2023-03-01T13:15:52;97876.28;;;5.66;51.20
78170;BME280;67412;49.892;14.490;2023-03-01T13:20:52;97873.53;;;5.52;50.17
78170;BME280;67412;49.892;14.490;2023-03-01T13:34:01;97874.16;;;5.36;51.27
78170;BME280;67412;49.892;14.490;2023-03-01T13:41:52;97876.28;;;5.67;51.84
78170;BME280;67412;49.892;14.490;2023-03-01T13:44:26;97884.66;;;5.59;51.45
78170;BME280;67412;49.892;14.490;2023-03-01T13:47:17;97874.25;;;5.42;51.78
78170;BME280;67412;49.892;14.490;2023-03-01T13:49:59;97875.06;;;5.41;51.52
78170;BME280;67412;49.892;14.490;2023-03-01T13:52:47;97877.84;;;5.56;51.72
78170;BME280;67412;49.892;14.490;2023-03-01T13:57:39;97868.94;;;5.87;51.03
78170;BME280;67412;49.892;14.490;2023-03-01T14:00:05;97876.88;;;6.07;51.10
78170;BME280;67412;49.892;14.490;2023-03-01T14:02:31;97870.97;;;6.11;50.24
78170;BME280;67412;49.892;14.490;2023-03-01T14:05:00;97872.63;;;6.09;49.37
78170;BME280;67412;49.892;14.490;2023-03-01T14:07:28;97881.91;;;6.04;50.39
78170;BME280;67412;49.892;14.490;2023-03-01T14:10:02;97874.00;;;5.85;50.14
78170;BME280;67412;49.892;14.490;2023-03-01T14:20:42;97867.84;;;5.71;50.22
78170;BME280;67412;49.892;14.490;2023-03-01T14:23:15;97871.34;;;5.76;50.52
78170;BME280;67412;49.892;14.490;2023-03-01T14:25:51;97866.41;;;5.87;50.35
78170;BME280;67412;49.892;14.490;2023-03-01T14:28:27;97869.06;;;5.95;50.14
78170;BME280;67412;49.892;14.490;2023-03-01T14:30:58;97864.91;;;6.03;49.88
78170;BME280;67412;49.892;14.490;2023-03-01T14:33:31;97862.47;;;6.13;49.68
78170;BME280;67412;49.892;14.490;2023-03-01T14:38:30;97857.91;;;5.87;50.59
78170;BME280;67412;49.892;14.490;2023-03-01T14:40:59;97855.06;;;5.70;50.27
78170;BME280;67412;49.892;14.490;2023-03-01T14:43:27;97861.00;;;5.66;50.12
78170;BME280;67412;49.892;14.490;2023-03-01T14:45:54;97853.69;;;5.90;50.43
78170;BME280;67412;49.892;14.490;2023-03-01T14:48:20;97861.22;;;5.82;50.07
78170;BME280;67412;49.892;14.490;2023-03-01T14:50:45;97866.13;;;5.70;50.07
78170;BME280;67412;49.892;14.490;2023-03-01T14:53:18;97873.78;;;5.69;50.08
78170;BME280;67412;49.892;14.490;2023-03-01T14:55:56;97876.13;;;5.55;50.11
78170;BME280;67412;49.892;14.490;2023-03-01T14:58:24;97882.97;;;5.59;50.50